Time;durP1;ratioP1;P1;durP2;ratioP2;P2;SDS_P1;SDS_P2;PMS_P1;PMS_P2;Temp;Humidity;BMP_temperature;BMP_pressure;BME280_temperature;BME280_humidity;BME280_pressure;Samples;Min_cycle;Max_cycle;Signal;HPM_P1;HPM_P2
2022/10/24 00:01:41;;;;;;;2.15;0.30;;;;;;;25.33;100.00;96161.81;6243966;22;20027;-92
2022/10/24 00:04:06;;;;;;;2.53;0.47;;;;;;;25.73;100.00;96165.38;6243496;22;20062;-90
2022/10/24 00:06:32;;;;;;;3.20;0.70;;;;;;;25.62;100.00;96162.25;6243172;22;20012;-91
2022/10/24 00:08:58;;;;;;;1.83;0.60;;;;;;;24.99;100.00;96162.84;6269341;22;20038;-92
2022/10/24 00:11:26;;;;;;;2.25;0.43;;;;;;;25.32;100.00;96151.31;6243194;22;20092;-92
2022/10/24 00:13:54;;;;;;;2.78;0.52;;;;;;;25.12;100.00;96166.81;6242543;22;20073;-91
2022/10/24 00:16:19;;;;;;;1.00;0.30;;;;;;;25.45;100.00;96162.28;6242014;22;20022;-92
2022/10/24 00:18:45;;;;;;;2.92;0.40;;;;;;;25.26;100.00;96160.81;6243239;22;20682;-92
2022/10/24 00:21:11;;;;;;;1.73;0.40;;;;;;;25.10;100.00;96155.50;6242755;22;20011;-92
2022/10/24 00:23:37;;;;;;;2.10;0.40;;;;;;;25.73;100.00;96154.69;6269985;22;20455;-92
2022/10/24 00:26:03;;;;;;;1.10;0.30;;;;;;;25.20;100.00;96145.47;6242246;22;19996;-91
2022/10/24 00:28:31;;;;;;;1.20;0.38;;;;;;;24.85;100.00;96148.34;6243346;22;20509;-92
2022/10/24 00:30:56;;;;;;;2.47;0.30;;;;;;;26.00;100.00;96147.22;6271694;22;20015;-92
2022/10/24 00:33:22;;;;;;;2.22;0.30;;;;;;;25.75;100.00;96157.19;6271585;22;20010;-92
2022/10/24 00:35:47;;;;;;;1.58;0.40;;;;;;;26.27;100.00;96145.09;6242987;22;20004;-92
2022/10/24 00:38:13;;;;;;;2.58;0.50;;;;;;;27.32;100.00;96150.75;6243514;22;20129;-92
2022/10/24 00:40:39;;;;;;;1.75;0.40;;;;;;;27.52;97.30;96156.44;6242519;22;20019;-92
2022/10/24 00:43:17;;;;;;;2.63;0.60;;;;;;;27.23;99.04;96148.16;6271459;22;20006;-91
2022/10/24 00:45:54;;;;;;;4.53;0.65;;;;;;;26.52;100.00;96143.06;6243608;22;20000;-92
2022/10/24 00:48:32;;;;;;;2.30;0.60;;;;;;;26.57;100.00;96153.25;6245161;22;20015;-92
2022/10/24 00:51:02;;;;;;;3.60;0.63;;;;;;;26.90;97.86;96147.66;6245683;22;20012;-92
2022/10/24 00:53:30;;;;;;;4.80;0.77;;;;;;;27.71;96.85;96142.50;6246058;22;20010;-91
2022/10/24 00:55:59;;;;;;;5.45;1.00;;;;;;;27.65;96.20;96142.41;6273555;22;20011;-92
2022/10/24 00:58:28;;;;;;;4.32;1.25;;;;;;;27.77;95.47;96144.41;6273722;22;20074;-93
2022/10/24 01:00:56;;;;;;;5.30;1.40;;;;;;;27.66;95.90;96138.72;6272359;22;20003;-93
2022/10/24 01:03:22;;;;;;;5.38;1.40;;;;;;;27.33;95.68;96144.41;6246015;22;20017;-93
2022/10/24 01:06:04;;;;;;;5.20;1.50;;;;;;;26.43;98.83;96144.16;6247022;22;20054;-92
2022/10/24 01:08:50;;;;;;;9.07;3.10;;;;;;;26.99;97.81;96127.84;6243800;22;20014;-92
2022/10/24 01:11:53;;;;;;;10.07;4.10;;;;;;;26.40;99.86;96145.34;6245714;22;20108;-92
2022/10/24 01:14:36;;;;;;;11.38;4.75;;;;;;;26.80;100.00;96141.72;6271897;22;20012;-92
2022/10/24 01:17:28;;;;;;;12.30;4.70;;;;;;;27.10;96.77;96134.59;6243712;22;20019;-93
2022/10/24 01:20:16;;;;;;;11.18;4.95;;;;;;;27.16;100.00;96139.22;6244177;22;20020;-92
2022/10/24 01:23:06;;;;;;;14.43;5.85;;;;;;;27.51;93.55;96130.69;6244306;22;20043;-92
2022/10/24 01:25:41;;;;;;;17.42;7.43;;;;;;;28.34;93.52;96138.50;6244104;22;20294;-92
2022/10/24 01:28:20;;;;;;;15.38;7.80;;;;;;;29.00;89.51;96127.56;6244286;22;20090;-92
2022/10/24 01:31:00;;;;;;;12.85;6.05;;;;;;;26.41;100.00;96130.13;6272110;22;20000;-90
2022/10/24 01:33:35;;;;;;;11.20;5.00;;;;;;;27.81;95.90;96126.13;6243315;22;20414;-93
2022/10/24 01:36:25;;;;;;;10.00;3.88;;;;;;;27.71;93.96;96128.25;6243027;22;20011;-92
2022/10/24 01:39:07;;;;;;;6.60;2.30;;;;;;;27.77;93.50;96123.00;6243294;22;20037;-93
2022/10/24 01:41:33;;;;;;;6.57;1.90;;;;;;;27.82;94.21;96130.47;6243082;22;20051;-92
2022/10/24 01:44:18;;;;;;;7.57;1.60;;;;;;;28.87;89.70;96120.25;6244509;22;20007;-93
2022/10/24 01:46:51;;;;;;;5.13;1.42;;;;;;;27.73;91.94;96124.38;6271217;22;20071;-93
2022/10/24 01:49:24;;;;;;;5.13;1.23;;;;;;;27.72;92.48;96128.06;6271521;22;20106;-93
2022/10/24 01:52:01;;;;;;;4.65;1.23;;;;;;;28.04;92.31;96134.03;6243884;22;20010;-92
2022/10/24 01:54:34;;;;;;;5.40;1.20;;;;;;;28.78;91.48;96129.44;6243881;22;20011;-93
2022/10/24 01:57:01;;;;;;;4.57;1.10;;;;;;;28.78;90.33;96134.81;6271381;22;20020;-93
2022/10/24 01:59:27;;;;;;;5.05;1.20;;;;;;;28.51;90.66;96128.38;6241638;22;20520;-92
2022/10/24 02:01:57;;;;;;;4.47;1.08;;;;;;;29.32;88.26;96130.72;6205421;22;20026;-93
2022/10/24 02:04:27;;;;;;;5.25;1.10;;;;;;;27.54;93.40;96131.16;6192725;23;20012;-93
2022/10/24 02:06:56;;;;;;;4.28;1.00;;;;;;;28.25;92.39;96135.09;6206149;23;20115;-92
2022/10/24 02:09:23;;;;;;;4.65;1.10;;;;;;;28.49;91.53;96139.28;6199062;23;20062;-92
2022/10/24 02:11:51;;;;;;;5.63;1.38;;;;;;;28.59;91.85;96129.06;6207397;23;20513;-92
2022/10/24 02:14:21;;;;;;;6.50;1.60;;;;;;;27.62;93.82;96132.06;6198094;23;20001;-92
2022/10/24 02:16:46;;;;;;;6.57;2.13;;;;;;;26.84;97.52;96125.13;6206783;23;20070;-92
2022/10/24 02:19:13;;;;;;;7.55;2.90;;;;;;;27.94;95.43;96128.13;6197449;23;20016;-92
2022/10/24 02:22:02;;;;;;;7.35;3.00;;;;;;;28.52;92.45;96124.63;6208150;23;20019;-92
2022/10/24 02:24:34;;;;;;;6.75;2.50;;;;;;;27.59;95.38;96127.91;6202044;23;20020;-93
2022/10/24 02:27:23;;;;;;;7.25;2.50;;;;;;;28.47;93.30;96119.88;6208493;23;20339;-92
2022/10/24 02:30:00;;;;;;;6.80;2.35;;;;;;;28.10;93.06;96125.28;6206505;23;20022;-93
2022/10/24 02:32:38;;;;;;;8.88;2.60;;;;;;;27.41;94.76;96134.47;6201332;23;20013;-92
2022/10/24 02:35:07;;;;;;;7.38;2.85;;;;;;;28.40;92.99;96127.00;6207979;23;20019;-93
2022/10/24 02:37:35;;;;;;;8.35;3.40;;;;;;;27.74;94.69;96130.59;6209370;23;20011;-93
2022/10/24 02:40:04;;;;;;;8.48;3.15;;;;;;;28.85;92.43;96122.31;6208708;23;20032;-94
2022/10/24 02:42:31;;;;;;;9.40;3.50;;;;;;;27.36;95.24;96134.19;6201745;23;20009;-92
2022/10/24 02:44:58;;;;;;;9.50;3.35;;;;;;;28.74;93.47;96130.84;6211324;23;20030;-92
2022/10/24 02:47:25;;;;;;;8.50;3.47;;;;;;;28.12;92.91;96135.78;6200708;23;20083;-92
2022/10/24 02:49:51;;;;;;;10.52;4.00;;;;;;;28.13;94.55;96131.25;6210125;23;20013;-93
2022/10/24 02:52:17;;;;;;;11.15;4.30;;;;;;;28.82;91.50;96138.75;6199487;23;20387;-93
2022/10/24 02:54:42;;;;;;;10.48;4.65;;;;;;;26.50;100.00;96139.75;6208608;23;20051;-92
2022/10/24 02:57:08;;;;;;;11.80;5.10;;;;;;;27.59;98.76;96139.44;6197932;23;20400;-92
2022/10/24 02:59:33;;;;;;;13.98;5.53;;;;;;;26.92;98.71;96146.47;6210367;23;20039;-93
2022/10/24 03:01:59;;;;;;;11.13;5.15;;;;;;;28.33;95.16;96136.84;6209072;23;20063;-91
2022/10/24 03:04:24;;;;;;;11.82;5.22;;;;;;;28.81;92.90;96149.69;6208704;23;20043;-92
2022/10/24 03:06:50;;;;;;;12.45;5.72;;;;;;;26.92;96.72;96149.13;6182946;23;20032;-93
2022/10/24 03:09:15;;;;;;;12.63;5.72;;;;;;;26.86;98.00;96146.34;6208610;23;20013;-92
2022/10/24 03:11:41;;;;;;;13.20;5.72;;;;;;;25.99;100.00;96153.56;6209993;23;20000;-92
2022/10/24 03:14:06;;;;;;;13.45;6.38;;;;;;;25.69;100.00;96149.84;6184245;23;20087;-92
2022/10/24 03:16:32;;;;;;;13.45;5.85;;;;;;;25.51;100.00;96158.09;6209411;23;20017;-92
2022/10/24 03:18:57;;;;;;;13.43;5.75;;;;;;;26.08;100.00;96150.88;6209306;23;20012;-93
2022/10/24 03:21:23;;;;;;;11.32;4.80;;;;;;;27.33;99.01;96152.44;6208404;23;20086;-93
2022/10/24 03:23:48;;;;;;;12.88;5.82;;;;;;;25.96;100.00;96158.44;6209805;23;20009;-93
2022/10/24 03:26:14;;;;;;;12.80;5.75;;;;;;;27.27;99.96;96154.00;6208801;23;20083;-93
2022/10/24 03:28:39;;;;;;;14.18;5.68;;;;;;;27.22;98.63;96162.56;6208473;23;20044;-93
2022/10/24 03:31:05;;;;;;;13.43;5.55;;;;;;;26.04;100.00;96156.59;6208155;23;20048;-93
2022/10/24 03:33:31;;;;;;;12.52;5.00;;;;;;;26.60;100.00;96160.91;6207746;23;20381;-94
2022/10/24 03:35:56;;;;;;;12.35;5.57;;;;;;;29.17;92.35;96170.22;6208515;23;20456;-92
2022/10/24 03:38:22;;;;;;;10.68;4.55;;;;;;;26.82;96.20;96175.31;6208426;23;20013;-93
2022/10/24 03:40:49;;;;;;;13.38;4.60;;;;;;;26.87;98.03;96175.56;6207775;23;20040;-93
2022/10/24 03:43:15;;;;;;;11.73;5.00;;;;;;;26.21;100.00;96167.19;6209771;23;20012;-93
2022/10/24 03:45:40;;;;;;;11.27;4.40;;;;;;;27.01;100.00;96170.47;6208083;23;20009;-92
2022/10/24 03:48:06;;;;;;;13.20;4.57;;;;;;;27.70;96.52;96180.16;6207547;23;20133;-93
2022/10/24 03:50:31;;;;;;;10.82;3.95;;;;;;;27.30;96.95;96187.59;6207448;23;20001;-93
2022/10/24 03:52:57;;;;;;;10.20;4.57;;;;;;;26.42;100.00;96177.22;6182290;23;20033;-94
2022/10/24 03:55:23;;;;;;;10.18;4.30;;;;;;;27.53;97.97;96188.38;6207667;23;20031;-91
2022/10/24 03:57:48;;;;;;;10.38;4.63;;;;;;;27.73;97.74;96188.66;6207965;23;20009;-92
2022/10/24 04:00:14;;;;;;;11.02;4.95;;;;;;;28.12;95.61;96181.34;6208424;23;20012;-92
2022/10/24 04:02:40;;;;;;;10.20;4.10;;;;;;;27.67;95.93;96185.88;6209096;23;20020;-93
2022/10/24 04:05:06;;;;;;;11.60;4.65;;;;;;;27.57;96.79;96194.19;6208224;23;20031;-92
2022/10/24 04:07:31;;;;;;;10.13;4.15;;;;;;;26.62;100.00;96201.66;6210096;23;20004;-92
2022/10/24 04:09:57;;;;;;;9.73;3.92;;;;;;;27.70;96.92;96199.72;6208323;23;20324;-91
2022/10/24 04:12:24;;;;;;;10.50;3.80;;;;;;;25.83;100.00;96207.88;6210412;23;20726;-92
2022/10/24 04:14:50;;;;;;;8.60;3.47;;;;;;;27.43;100.00;96211.88;6209037;23;20485;-93
2022/10/24 04:17:15;;;;;;;8.43;3.10;;;;;;;27.07;97.54;96216.03;6182890;23;20004;-91
2022/10/24 04:19:41;;;;;;;7.60;2.80;;;;;;;28.98;92.53;96217.31;6182947;23;20076;-92
2022/10/24 04:22:06;;;;;;;8.25;2.50;;;;;;;26.33;100.00;96221.88;6210221;23;20008;-93
2022/10/24 04:24:33;;;;;;;7.80;2.30;;;;;;;26.60;100.00;96226.88;6207627;23;20296;-93
2022/10/24 04:26:58;;;;;;;8.68;2.40;;;;;;;26.57;100.00;96228.91;6209575;23;20000;-93
2022/10/24 04:29:23;;;;;;;10.27;2.70;;;;;;;26.81;98.75;96227.13;6209389;23;20569;-93
2022/10/24 04:31:49;;;;;;;7.78;2.42;;;;;;;27.36;96.10;96233.22;6207657;23;20013;-92
2022/10/24 04:34:14;;;;;;;10.90;3.33;;;;;;;26.72;100.00;96234.38;6207328;23;20095;-93
2022/10/24 04:36:40;;;;;;;12.45;3.65;;;;;;;26.34;99.30;96244.09;6206031;23;20008;-92
2022/10/24 04:39:05;;;;;;;12.98;3.97;;;;;;;25.34;100.00;96238.16;6208731;23;20016;-93
2022/10/24 04:41:31;;;;;;;14.43;4.28;;;;;;;26.22;100.00;96244.47;6207275;23;20032;-93
2022/10/24 04:43:57;;;;;;;16.88;4.00;;;;;;;26.40;100.00;96246.03;6182711;23;20415;-92
2022/10/24 04:46:23;;;;;;;13.50;3.25;;;;;;;24.80;100.00;96254.66;6207395;23;20012;-92
2022/10/24 04:48:49;;;;;;;12.38;3.50;;;;;;;26.21;100.00;96258.00;6207468;23;20012;-91
2022/10/24 04:51:14;;;;;;;16.15;4.03;;;;;;;25.87;100.00;96259.09;6207316;23;20015;-94
2022/10/24 04:53:39;;;;;;;16.33;3.72;;;;;;;25.53;100.00;96254.84;6207750;23;20014;-93
2022/10/24 04:56:05;;;;;;;13.80;3.65;;;;;;;26.03;100.00;96255.56;6183381;23;20100;-92
2022/10/24 04:58:31;;;;;;;21.52;4.05;;;;;;;26.41;99.27;96259.22;6208941;23;20689;-92
2022/10/24 05:00:56;;;;;;;15.38;3.50;;;;;;;24.66;100.00;96271.28;6211605;23;20027;-94
2022/10/24 05:03:22;;;;;;;15.98;3.60;;;;;;;25.57;100.00;96280.19;6213610;23;20013;-93
2022/10/24 05:05:47;;;;;;;16.63;4.18;;;;;;;25.79;100.00;96289.31;6212850;23;20008;-93
2022/10/24 05:08:13;;;;;;;15.35;3.50;;;;;;;25.67;100.00;96283.50;6212345;23;20011;-93
2022/10/24 05:10:39;;;;;;;15.48;2.95;;;;;;;25.80;100.00;96282.13;6212459;23;20056;-92
2022/10/24 05:13:04;;;;;;;36.95;4.90;;;;;;;25.82;100.00;96288.97;6211521;23;20004;-93
2022/10/24 05:15:29;;;;;;;24.67;4.55;;;;;;;24.82;100.00;96283.81;6239838;23;20004;-92
2022/10/24 05:17:56;;;;;;;57.78;8.18;;;;;;;25.75;100.00;96297.81;6240677;23;20079;-93
2022/10/24 05:20:22;;;;;;;21.63;4.25;;;;;;;25.03;100.00;96313.50;6213795;23;20646;-92
2022/10/24 05:22:47;;;;;;;51.78;6.25;;;;;;;25.41;100.00;96310.38;6212846;23;20037;-92
2022/10/24 05:25:13;;;;;;;24.75;3.83;;;;;;;26.12;100.00;96307.94;6211356;23;20443;-93
2022/10/24 05:27:39;;;;;;;18.77;3.60;;;;;;;26.66;100.00;96309.88;6213550;23;20046;-93
2022/10/24 05:30:05;;;;;;;20.10;3.53;;;;;;;24.93;100.00;96319.97;6212752;23;20004;-92
2022/10/24 05:32:30;;;;;;;27.25;3.95;;;;;;;25.20;100.00;96317.00;6240795;23;20003;-93
2022/10/24 05:34:56;;;;;;;21.27;3.40;;;;;;;25.37;100.00;96330.38;6213939;23;20015;-93
2022/10/24 05:37:21;;;;;;;17.10;3.40;;;;;;;25.57;100.00;96328.22;6214236;23;20414;-94
2022/10/24 05:39:47;;;;;;;18.42;3.15;;;;;;;25.73;100.00;96330.03;6241751;23;20035;-93
2022/10/24 05:42:12;;;;;;;21.52;3.78;;;;;;;25.58;100.00;96339.72;6242738;23;20004;-94
2022/10/24 05:44:38;;;;;;;16.90;2.90;;;;;;;25.14;100.00;96346.19;6214475;23;20083;-93
2022/10/24 05:47:03;;;;;;;19.08;3.50;;;;;;;25.85;100.00;96343.88;6214863;23;20004;-93
2022/10/24 05:49:29;;;;;;;24.10;3.75;;;;;;;25.42;100.00;96348.59;6214092;23;20038;-92
2022/10/24 05:51:54;;;;;;;25.92;4.05;;;;;;;25.67;100.00;96352.06;6212523;23;20078;-94
2022/10/24 05:54:19;;;;;;;22.58;3.42;;;;;;;25.84;99.74;96348.38;6212819;23;20019;-93
2022/10/24 05:56:45;;;;;;;19.45;3.50;;;;;;;26.71;98.86;96355.69;6241676;23;20047;-93
2022/10/24 05:59:10;;;;;;;23.33;4.57;;;;;;;26.75;98.86;96356.19;6214563;23;20012;-93
2022/10/24 06:01:36;;;;;;;19.67;4.75;;;;;;;27.07;97.23;96357.81;6209189;23;20024;-93
2022/10/24 06:04:01;;;;;;;44.92;6.65;;;;;;;27.02;97.21;96354.03;6208615;23;20004;-92
2022/10/24 06:06:27;;;;;;;29.60;6.40;;;;;;;25.65;100.00;96360.25;6208162;23;20012;-92
2022/10/24 06:08:53;;;;;;;28.60;7.63;;;;;;;26.34;100.00;96365.16;6210202;23;20020;-93
2022/10/24 06:11:19;;;;;;;29.92;7.57;;;;;;;26.81;97.75;96363.50;6212583;23;20070;-92
2022/10/24 06:13:44;;;;;;;26.20;7.75;;;;;;;26.83;97.73;96364.13;6209543;23;20403;-93
2022/10/24 06:16:10;;;;;;;22.90;6.80;;;;;;;27.00;95.56;96366.72;6210711;23;20013;-92
2022/10/24 06:18:38;;;;;;;22.55;7.10;;;;;;;26.12;98.09;96373.91;6209455;23;20466;-93
2022/10/24 06:21:06;;;;;;;22.40;6.35;;;;;;;26.92;96.07;96376.47;6209878;23;20054;-94
2022/10/24 06:23:31;;;;;;;29.38;6.40;;;;;;;27.77;93.64;96381.94;6209469;23;20452;-93
2022/10/24 06:25:57;;;;;;;20.63;5.93;;;;;;;25.66;100.00;96382.44;6209301;23;20017;-92
2022/10/24 06:28:24;;;;;;;19.10;5.22;;;;;;;26.07;99.79;96377.09;6209506;23;20328;-93
2022/10/24 06:30:51;;;;;;;18.10;5.68;;;;;;;25.82;100.00;96385.09;6209225;23;20051;-92
2022/10/24 06:33:17;;;;;;;19.05;4.65;;;;;;;24.91;100.00;96394.78;6209602;23;20012;-92
2022/10/24 06:35:49;;;;;;;21.55;5.10;;;;;;;26.18;100.00;96390.09;6209658;23;20099;-93
2022/10/24 06:38:15;;;;;;;16.67;4.32;;;;;;;26.01;98.21;96385.72;6209354;23;20469;-94
2022/10/24 06:40:41;;;;;;;19.80;4.93;;;;;;;25.66;100.00;96390.44;6204514;23;20016;-93
2022/10/24 06:43:07;;;;;;;25.17;4.85;;;;;;;25.96;100.00;96391.59;6206261;23;20030;-94
2022/10/24 06:45:32;;;;;;;24.30;4.70;;;;;;;26.08;97.97;96397.44;6208677;23;20088;-92
2022/10/24 06:48:00;;;;;;;22.83;5.10;;;;;;;25.84;100.00;96404.44;6210968;23;20000;-95
2022/10/24 06:50:31;;;;;;;16.05;3.97;;;;;;;26.16;98.06;96396.59;6209044;23;20080;-94
2022/10/24 06:53:00;;;;;;;19.60;3.90;;;;;;;26.44;97.50;96410.38;6209005;23;20017;-95
2022/10/24 06:55:35;;;;;;;23.33;4.63;;;;;;;25.20;100.00;96426.38;6209777;23;20427;-93
2022/10/24 06:58:04;;;;;;;18.60;4.63;;;;;;;25.37;100.00;96421.09;6209557;23;20017;-92
2022/10/24 07:00:37;;;;;;;21.02;7.38;;;;;;;24.82;100.00;96427.75;6207600;23;20466;-95
2022/10/24 07:03:21;;;;;;;21.83;6.95;;;;;;;26.39;98.64;96421.59;6185776;23;20054;-94
2022/10/24 07:05:58;;;;;;;27.48;9.63;;;;;;;26.06;97.39;96436.84;6185186;23;20004;-94
2022/10/24 07:08:26;;;;;;;26.50;9.13;;;;;;;25.04;100.00;96445.00;6188222;23;20008;-94
2022/10/24 07:11:01;;;;;;;21.52;9.70;;;;;;;26.02;98.00;96438.19;6186838;23;20080;-96
2022/10/24 07:13:36;;;;;;;20.92;7.63;;;;;;;25.07;100.00;96466.03;6185319;23;20462;-96
2022/10/24 07:16:05;;;;;;;19.77;7.25;;;;;;;26.24;100.00;96452.69;6188009;23;20009;-95
2022/10/24 07:19:00;;;;;;;19.63;5.72;;;;;;;24.78;100.00;96469.88;6187511;23;20008;-96
2022/10/24 07:21:28;;;;;;;18.20;5.93;;;;;;;25.80;100.00;96466.34;6184109;23;20004;-95
2022/10/24 07:23:55;;;;;;;15.25;6.35;;;;;;;25.87;98.92;96475.38;6212581;23;20008;-96
2022/10/24 07:26:22;;;;;;;16.83;7.05;;;;;;;26.12;98.54;96473.56;6186174;23;19992;-96
2022/10/24 07:28:52;;;;;;;19.33;6.85;;;;;;;26.20;98.80;96486.91;6213261;23;20012;-96
2022/10/24 07:31:19;;;;;;;16.45;6.13;;;;;;;25.35;100.00;96487.13;6186146;23;20095;-95
2022/10/24 07:33:45;;;;;;;15.60;5.80;;;;;;;25.86;100.00;96495.06;6213701;23;20024;-95
2022/10/24 07:36:18;;;;;;;17.08;5.28;;;;;;;26.33;99.57;96497.09;6185524;23;20597;-96
2022/10/24 07:38:45;;;;;;;14.85;4.53;;;;;;;25.00;100.00;96503.16;6211934;23;20032;-95
2022/10/24 07:41:10;;;;;;;16.90;4.70;;;;;;;25.71;99.27;96509.06;6186513;23;20290;-95
2022/10/24 07:43:36;;;;;;;17.48;4.90;;;;;;;25.31;100.00;96515.09;6187571;23;20096;-94
2022/10/24 07:46:09;;;;;;;17.65;4.40;;;;;;;25.65;100.00;96508.88;6188351;23;20031;-95
2022/10/24 07:48:35;;;;;;;;;;;;;;;25.83;99.65;96524.75;6185115;23;20078;-95
2022/10/24 07:51:05;;;;;;;23.17;4.68;;;;;;;25.30;98.84;96529.44;6180908;23;20322;-96
2022/10/24 07:53:30;;;;;;;20.33;4.38;;;;;;;25.60;98.10;96529.91;6180236;23;20715;-94
2022/10/24 07:55:58;;;;;;;17.30;3.72;;;;;;;25.12;98.97;96534.88;6179301;23;20009;-95
2022/10/24 07:58:24;;;;;;;18.67;4.05;;;;;;;24.93;100.00;96541.25;6184368;23;20741;-95
2022/10/24 08:00:49;;;;;;;17.60;4.00;;;;;;;25.09;100.00;96525.34;6177441;23;20047;-96
2022/10/24 08:03:15;;;;;;;16.13;3.35;;;;;;;24.46;100.00;96545.13;6179082;23;20017;-96
2022/10/24 08:05:40;;;;;;;14.85;3.00;;;;;;;24.81;100.00;96544.22;6178027;23;20005;-95
2022/10/24 08:08:06;;;;;;;15.82;2.78;;;;;;;24.62;100.00;96550.59;6180657;23;20150;-96
2022/10/24 08:10:32;;;;;;;12.95;2.40;;;;;;;24.16;100.00;96545.41;6179695;23;20075;-94
2022/10/24 08:12:57;;;;;;;14.25;2.30;;;;;;;25.05;100.00;96542.66;6178807;23;20016;-94
2022/10/24 08:15:26;;;;;;;14.98;2.38;;;;;;;24.00;100.00;96548.75;6178803;23;20090;-93
2022/10/24 08:17:52;;;;;;;18.13;2.38;;;;;;;24.77;100.00;96545.50;6179958;23;20477;-93
2022/10/24 08:20:17;;;;;;;14.98;2.08;;;;;;;24.49;100.00;96566.13;6180202;23;20055;-95
2022/10/24 08:22:45;;;;;;;13.73;2.15;;;;;;;24.32;100.00;96560.66;6179337;23;20007;-95
2022/10/24 08:25:14;;;;;;;13.25;2.17;;;;;;;24.15;100.00;96566.88;6182500;23;20004;-94
2022/10/24 08:27:41;;;;;;;14.70;2.20;;;;;;;23.66;100.00;96562.69;6213395;23;20001;-94
2022/10/24 08:30:07;;;;;;;17.58;2.90;;;;;;;24.58;100.00;96569.69;6213037;23;20505;-95
2022/10/24 08:32:34;;;;;;;14.88;2.25;;;;;;;24.69;100.00;96569.44;6184487;23;20198;-95
2022/10/24 08:35:00;;;;;;;14.18;2.53;;;;;;;24.73;100.00;96577.97;6186121;23;20051;-95
2022/10/24 08:37:26;;;;;;;18.67;2.47;;;;;;;23.83;100.00;96577.00;6184530;23;20008;-95
2022/10/24 08:39:55;;;;;;;15.50;2.47;;;;;;;24.61;100.00;96588.06;6184785;23;20005;-96
2022/10/24 08:42:23;;;;;;;15.50;2.17;;;;;;;24.71;100.00;96584.31;6187339;23;20043;-96
2022/10/24 08:44:50;;;;;;;10.85;1.88;;;;;;;24.44;100.00;96587.06;6212897;23;20008;-95
2022/10/24 08:47:44;;;;;;;11.95;2.33;;;;;;;24.54;100.00;96593.16;6186636;23;20088;-96
2022/10/24 08:50:25;;;;;;;15.70;2.42;;;;;;;25.07;100.00;96591.38;6187416;23;20008;-96
2022/10/24 08:53:10;;;;;;;13.57;2.22;;;;;;;24.47;100.00;96600.91;6188095;23;20017;-96
2022/10/24 08:55:39;;;;;;;17.60;2.22;;;;;;;24.84;100.00;96604.38;6187938;23;20009;-96
2022/10/24 08:58:10;;;;;;;16.45;2.85;;;;;;;25.35;100.00;96615.22;6187964;23;20054;-95
2022/10/24 09:00:40;;;;;;;16.80;2.38;;;;;;;24.48;100.00;96613.25;6186738;23;20020;-95
2022/10/24 09:03:40;;;;;;;16.58;2.53;;;;;;;24.57;100.00;96611.50;6187808;23;20081;-95
2022/10/24 09:06:17;;;;;;;16.33;2.35;;;;;;;24.36;100.00;96627.81;6188974;23;20004;-96
2022/10/24 09:08:45;;;;;;;13.23;2.28;;;;;;;24.33;100.00;96628.94;6189117;23;20050;-96
2022/10/24 09:11:41;;;;;;;15.55;2.10;;;;;;;23.46;100.00;96624.97;6188951;23;20008;-96
2022/10/24 09:14:29;;;;;;;15.10;2.85;;;;;;;24.74;100.00;96633.81;6170554;23;20012;-95
2022/10/24 09:17:09;;;;;;;15.02;2.70;;;;;;;24.19;100.00;96630.31;6187221;23;20114;-95
2022/10/24 09:19:37;;;;;;;15.73;2.40;;;;;;;24.70;100.00;96630.63;6186591;23;20039;-96
2022/10/24 09:22:08;;;;;;;19.55;3.10;;;;;;;24.93;100.00;96621.25;6186844;23;20009;-96
2022/10/24 09:24:54;;;;;;;16.05;3.10;;;;;;;24.70;100.00;96640.44;6190330;23;20450;-95
2022/10/24 09:27:24;;;;;;;13.02;3.15;;;;;;;25.40;100.00;96652.94;6189158;23;19996;-96
2022/10/24 09:29:51;;;;;;;12.73;3.17;;;;;;;24.50;100.00;96653.91;6189539;23;20001;-96
2022/10/24 09:32:29;;;;;;;16.75;2.72;;;;;;;23.62;100.00;96641.16;6189017;23;20337;-96
2022/10/24 09:34:58;;;;;;;17.50;3.30;;;;;;;24.08;100.00;96658.97;6189412;23;20395;-96
2022/10/24 09:37:31;;;;;;;11.25;2.42;;;;;;;24.30;100.00;96665.69;6188035;23;20005;-95
2022/10/24 09:40:06;;;;;;;14.40;2.35;;;;;;;23.83;100.00;96659.53;6188128;23;20032;-95
2022/10/24 09:42:32;;;;;;;12.88;2.75;;;;;;;25.08;100.00;96661.53;6185723;23;20034;-96
2022/10/24 09:45:24;;;;;;;17.17;3.70;;;;;;;25.11;100.00;96667.41;6186099;23;20040;-95
2022/10/24 09:48:00;;;;;;;17.52;3.42;;;;;;;24.97;100.00;96668.81;6188612;23;20443;-95
2022/10/24 09:50:26;;;;;;;19.17;2.83;;;;;;;24.60;100.00;96664.47;6187993;23;20028;-96
2022/10/24 09:52:58;;;;;;;20.40;2.85;;;;;;;23.52;100.00;96675.78;6186020;23;20009;-96
2022/10/24 09:55:49;;;;;;;15.70;2.60;;;;;;;24.38;100.00;96665.78;6185894;23;20008;-96
2022/10/24 09:58:28;;;;;;;18.20;2.97;;;;;;;24.54;100.00;96675.75;6185737;23;20077;-96
2022/10/24 10:01:17;;;;;;;14.77;2.80;;;;;;;26.37;100.00;96668.63;6188106;23;20090;-96
2022/10/24 10:03:59;;;;;;;12.00;2.38;;;;;;;24.57;100.00;96677.28;6210075;23;20285;-96
2022/10/24 10:06:25;;;;;;;12.40;2.38;;;;;;;25.22;100.00;96675.13;6210575;23;20506;-96
2022/10/24 10:08:56;;;;;;;12.40;2.42;;;;;;;25.26;100.00;96678.34;6211877;23;20015;-95
2022/10/24 10:11:32;;;;;;;11.25;2.20;;;;;;;26.75;100.00;96693.09;6215518;23;20020;-96
2022/10/24 10:14:01;;;;;;;14.15;3.13;;;;;;;25.44;100.00;96688.13;6216123;23;20012;-96
2022/10/24 10:16:35;;;;;;;13.70;2.50;;;;;;;25.79;100.00;96692.47;6213429;23;20008;-96
2022/10/24 10:19:12;;;;;;;14.52;2.75;;;;;;;24.48;100.00;96685.19;6213396;23;20000;-96
2022/10/24 10:21:58;;;;;;;15.82;2.55;;;;;;;24.66;100.00;96708.38;6216275;23;20016;-96
2022/10/24 10:24:31;;;;;;;15.90;2.42;;;;;;;25.77;100.00;96702.47;6209339;23;20012;-96
2022/10/24 10:26:56;;;;;;;10.38;2.05;;;;;;;25.90;100.00;96702.88;6210048;23;20011;-96
2022/10/24 10:29:23;;;;;;;11.38;2.28;;;;;;;26.98;99.14;96689.75;6209209;23;20008;-96
2022/10/24 10:31:57;;;;;;;11.73;1.77;;;;;;;26.06;100.00;96691.41;6210628;23;20008;-96
2022/10/24 10:34:22;;;;;;;9.68;1.83;;;;;;;26.12;100.00;96705.97;6210858;23;20020;-95
2022/10/24 10:36:57;;;;;;;13.60;1.85;;;;;;;25.51;100.00;96710.50;6212111;23;20011;-96
2022/10/24 10:39:50;;;;;;;6.72;1.42;;;;;;;25.97;100.00;96712.91;6212821;23;20064;-96
2022/10/24 10:42:39;;;;;;;9.80;1.77;;;;;;;25.03;100.00;96720.69;6214222;23;20104;-96
2022/10/24 10:45:34;;;;;;;13.65;1.88;;;;;;;25.67;100.00;96725.78;6212957;23;20027;-96
2022/10/24 10:48:18;;;;;;;9.32;1.83;;;;;;;25.63;100.00;96732.44;6215085;23;20012;-96
2022/10/24 10:50:54;;;;;;;10.93;1.75;;;;;;;26.06;100.00;96726.16;6214710;23;20016;-96
2022/10/24 10:53:20;;;;;;;12.45;2.05;;;;;;;26.13;100.00;96734.34;6215134;23;20019;-96
2022/10/24 10:55:53;;;;;;;12.77;2.28;;;;;;;25.70;100.00;96723.63;6215103;23;20059;-96
2022/10/24 10:58:49;;;;;;;14.95;2.42;;;;;;;26.20;100.00;96737.22;6216268;23;20007;-96
2022/10/24 11:01:32;;;;;;;14.88;1.70;;;;;;;27.03;99.82;96735.56;6216216;23;20028;-96
2022/10/24 11:04:12;;;;;;;17.55;2.65;;;;;;;26.85;100.00;96741.91;6214829;23;20079;-96
2022/10/24 11:06:56;;;;;;;10.35;2.03;;;;;;;25.85;99.82;96745.22;6215460;23;20008;-96
2022/10/24 11:09:38;;;;;;;13.88;2.00;;;;;;;26.85;99.53;96741.06;6220217;23;20012;-96
2022/10/24 11:12:24;;;;;;;12.65;2.08;;;;;;;25.51;100.00;96761.22;6218506;23;20431;-95
2022/10/24 11:14:50;;;;;;;15.52;2.13;;;;;;;26.14;99.03;96760.09;6214574;23;20439;-96
2022/10/24 11:17:22;;;;;;;10.02;2.05;;;;;;;26.30;97.78;96753.94;6214244;23;20020;-96
2022/10/24 11:20:29;;;;;;;12.88;1.90;;;;;;;25.68;100.00;96754.16;6214633;23;20012;-96
2022/10/24 11:23:32;;;;;;;11.63;2.17;;;;;;;25.18;100.00;96753.81;6214293;23;20003;-94
2022/10/24 11:26:14;;;;;;;9.80;2.10;;;;;;;25.46;100.00;96753.69;6213829;23;20016;-95
2022/10/24 11:28:54;;;;;;;17.20;2.30;;;;;;;26.48;98.92;96759.19;6215550;23;20004;-95
2022/10/24 11:31:29;;;;;;;12.15;2.45;;;;;;;25.79;100.00;96759.22;6215702;23;20023;-96
2022/10/24 11:33:57;;;;;;;11.02;2.35;;;;;;;27.76;96.20;96763.25;6215076;23;20004;-96
2022/10/24 11:36:33;;;;;;;10.20;2.22;;;;;;;26.27;97.64;96769.47;6214026;23;20016;-96
2022/10/24 11:39:15;;;;;;;12.50;1.95;;;;;;;26.36;96.80;96766.69;6213934;23;20043;-95